Time;durP1;ratioP1;P1;durP2;ratioP2;P2;SDS_P1;SDS_P2;PMS_P1;PMS_P2;Temp;Humidity;BMP_temperature;BMP_pressure;BME280_temperature;BME280_humidity;BME280_pressure;Samples;Min_cycle;Max_cycle;Signal;HPM_P1;HPM_P2
2023/04/18 00:01:22;;;;;;;13.03;11.60;;;15.90;99.90;;;;;;4978088;28;20489;-84
2023/04/18 00:03:51;;;;;;;13.63;11.07;;;15.90;99.90;;;;;;4960422;28;20477;-85
2023/04/18 00:06:16;;;;;;;13.97;10.60;;;16.00;99.90;;;;;;4960588;28;20654;-86
2023/04/18 00:08:42;;;;;;;11.40;10.20;;;16.00;99.90;;;;;;4977874;28;20429;-81
2023/04/18 00:11:08;;;;;;;13.10;10.40;;;16.00;99.90;;;;;;4960586;28;20212;-81
2023/04/18 00:13:34;;;;;;;12.97;10.00;;;16.00;99.90;;;;;;4960694;28;20212;-86
2023/04/18 00:16:01;;;;;;;12.50;10.00;;;16.00;99.90;;;;;;4960439;28;20538;-82
2023/04/18 00:18:27;;;;;;;10.40;9.30;;;16.00;99.90;;;;;;4978285;28;20814;-86
2023/04/18 00:20:53;;;;;;;11.20;9.50;;;16.00;99.90;;;;;;4960333;28;20426;-81
2023/04/18 00:23:20;;;;;;;13.60;9.73;;;15.90;99.90;;;;;;4960522;28;20547;-85
2023/04/18 00:25:46;;;;;;;10.33;9.30;;;15.90;99.90;;;;;;4978088;28;20819;-80
2023/04/18 00:28:12;;;;;;;9.80;7.90;;;15.90;99.90;;;;;;4961283;28;20426;-86
2023/04/18 00:30:38;;;;;;;10.57;8.47;;;15.80;99.90;;;;;;4978446;28;20410;-81
2023/04/18 00:33:03;;;;;;;11.40;7.90;;;15.80;99.90;;;;;;4978514;28;20828;-81
2023/04/18 00:35:30;;;;;;;11.50;9.00;;;15.80;99.90;;;;;;4961047;28;20192;-86
2023/04/18 00:37:56;;;;;;;9.60;8.60;;;15.70;99.90;;;;;;4960687;28;20180;-81
2023/04/18 00:40:22;;;;;;;9.90;7.83;;;15.60;99.90;;;;;;4959881;28;20435;-86
2023/04/18 00:42:48;;;;;;;13.27;8.30;;;15.60;99.90;;;;;;4959979;28;20474;-86
2023/04/18 00:45:14;;;;;;;9.70;8.50;;;15.60;99.90;;;;;;4959807;28;20485;-87
2023/04/18 00:47:39;;;;;;;10.60;8.60;;;15.60;99.90;;;;;;4960081;28;20207;-81
2023/04/18 00:50:06;;;;;;;12.27;8.97;;;15.50;99.90;;;;;;4977141;28;20716;-81
2023/04/18 00:52:34;;;;;;;12.57;9.70;;;15.60;99.90;;;;;;4977379;28;20190;-81
2023/04/18 00:55:05;;;;;;;12.07;8.93;;;15.50;99.90;;;;;;4959775;28;20449;-86
2023/04/18 00:57:31;;;;;;;11.93;9.13;;;15.50;99.90;;;;;;4959694;28;20429;-87
2023/04/18 00:59:59;;;;;;;20.03;10.03;;;15.50;99.90;;;;;;4976926;28;20423;-86
2023/04/18 01:02:28;;;;;;;13.63;9.37;;;15.40;99.90;;;;;;4959627;28;20212;-86
2023/04/18 01:04:54;;;;;;;11.67;8.67;;;15.40;99.90;;;;;;4976854;28;20990;-82
2023/04/18 01:07:19;;;;;;;11.17;9.10;;;15.40;99.90;;;;;;4959532;28;20458;-87
2023/04/18 01:09:46;;;;;;;9.30;8.27;;;15.30;99.90;;;;;;4959339;28;20196;-87
2023/04/18 01:12:11;;;;;;;11.00;9.10;;;15.40;99.90;;;;;;4959521;28;20185;-81
2023/04/18 01:14:41;;;;;;;12.80;9.73;;;15.40;99.90;;;;;;4959346;28;20822;-86
2023/04/18 01:17:09;;;;;;;12.27;9.60;;;15.40;99.90;;;;;;4976661;28;20169;-86
2023/04/18 01:19:39;;;;;;;13.23;10.17;;;15.40;99.90;;;;;;4976566;28;20434;-81
2023/04/18 01:22:05;;;;;;;12.87;9.70;;;15.40;99.90;;;;;;4976421;28;20418;-81
2023/04/18 01:24:31;;;;;;;12.73;10.13;;;15.40;99.90;;;;;;4959049;28;20781;-87
2023/04/18 01:26:57;;;;;;;11.90;9.67;;;15.40;99.90;;;;;;4976661;28;20434;-84
2023/04/18 01:29:26;;;;;;;12.40;10.00;;;15.40;99.90;;;;;;4976447;28;20969;-81
2023/04/18 01:31:51;;;;;;;13.80;10.10;;;15.40;99.90;;;;;;4958851;28;20546;-81
2023/04/18 01:34:17;;;;;;;13.80;9.97;;;15.40;99.90;;;;;;4976404;28;20431;-86
2023/04/18 01:36:44;;;;;;;13.57;9.73;;;15.40;99.90;;;;;;4959050;28;20184;-81
2023/04/18 01:39:11;;;;;;;12.80;10.50;;;15.40;99.90;;;;;;4959491;28;20192;-86
2023/04/18 01:41:36;;;;;;;12.47;9.60;;;15.40;99.90;;;;;;4959075;28;20438;-86
2023/04/18 01:44:03;;;;;;;14.13;10.77;;;15.40;99.90;;;;;;4975997;28;20557;-81
2023/04/18 01:46:29;;;;;;;11.67;9.87;;;15.40;99.90;;;;;;4958817;28;20790;-81
2023/04/18 01:48:55;;;;;;;17.20;10.17;;;15.40;99.90;;;;;;4976022;28;20426;-81
2023/04/18 01:51:21;;;;;;;13.40;9.57;;;15.40;99.90;;;;;;4976042;28;20228;-87
2023/04/18 01:53:47;;;;;;;11.20;9.60;;;15.50;99.90;;;;;;4958573;28;20434;-88
2023/04/18 01:56:13;;;;;;;16.33;10.50;;;15.40;99.90;;;;;;4975886;28;20176;-87
2023/04/18 01:58:40;;;;;;;12.10;9.70;;;15.40;99.90;;;;;;4958480;28;20205;-88
2023/04/18 02:01:06;;;;;;;11.47;9.93;;;15.30;99.90;;;;;;4958508;28;20204;-87
2023/04/18 02:03:32;;;;;;;12.73;10.33;;;15.40;99.90;;;;;;4958517;28;20885;-87
2023/04/18 02:05:57;;;;;;;10.30;9.10;;;15.30;99.90;;;;;;4975885;28;20529;-86
2023/04/18 02:08:23;;;;;;;15.87;10.77;;;15.30;99.90;;;;;;4958035;28;20431;-88
2023/04/18 02:10:49;;;;;;;16.40;10.87;;;15.40;99.90;;;;;;4975716;28;20418;-82
2023/04/18 02:13:15;;;;;;;13.30;10.40;;;15.40;99.90;;;;;;4958535;28;20418;-88
2023/04/18 02:15:43;;;;;;;13.63;11.33;;;15.40;99.90;;;;;;4958346;28;20560;-82
2023/04/18 02:18:10;;;;;;;13.23;10.27;;;15.40;99.90;;;;;;4958424;28;20429;-87
2023/04/18 02:20:36;;;;;;;12.83;10.40;;;15.40;99.90;;;;;;4958280;28;20432;-87
2023/04/18 02:23:02;;;;;;;12.77;10.60;;;15.40;99.90;;;;;;4958205;28;20489;-88
2023/04/18 02:25:28;;;;;;;15.10;11.60;;;15.40;99.90;;;;;;4975455;28;20264;-82
2023/04/18 02:27:54;;;;;;;14.27;10.53;;;15.40;99.90;;;;;;4958256;28;20430;-86
2023/04/18 02:30:21;;;;;;;11.63;10.43;;;15.40;99.90;;;;;;4958003;28;20450;-81
2023/04/18 02:32:50;;;;;;;15.03;11.10;;;15.30;99.90;;;;;;4975403;28;20458;-87
2023/04/18 02:35:16;;;;;;;13.57;10.47;;;15.30;99.90;;;;;;4957998;28;21043;-81
2023/04/18 02:37:42;;;;;;;13.83;10.40;;;15.30;99.90;;;;;;4975655;28;20418;-81
2023/04/18 02:40:08;;;;;;;14.83;10.20;;;15.30;99.90;;;;;;4975233;28;20431;-81
2023/04/18 02:42:35;;;;;;;17.00;10.50;;;15.30;99.90;;;;;;4975467;28;20204;-87
2023/04/18 02:45:00;;;;;;;14.63;11.37;;;15.30;99.90;;;;;;4957683;28;20932;-81
2023/04/18 02:47:26;;;;;;;19.10;14.57;;;15.30;99.90;;;;;;4957962;28;20549;-82
2023/04/18 02:49:52;;;;;;;22.83;15.33;;;15.30;99.90;;;;;;4957835;28;20689;-81
2023/04/18 02:52:18;;;;;;;25.37;17.00;;;15.30;99.90;;;;;;4975686;28;20187;-85
2023/04/18 02:54:44;;;;;;;24.97;18.60;;;15.30;99.90;;;;;;4975347;28;20201;-86
2023/04/18 02:57:09;;;;;;;25.30;16.17;;;15.20;99.90;;;;;;4957796;28;20805;-88
2023/04/18 02:59:35;;;;;;;20.33;15.23;;;15.20;99.90;;;;;;4976043;28;20267;-86
2023/04/18 03:02:01;;;;;;;21.70;15.70;;;15.10;99.90;;;;;;4957645;28;20517;-87
2023/04/18 03:04:27;;;;;;;15.53;12.30;;;15.10;99.90;;;;;;4975006;28;20192;-87
2023/04/18 03:06:54;;;;;;;16.87;12.27;;;15.10;99.90;;;;;;4957767;28;20427;-85
2023/04/18 03:09:20;;;;;;;15.60;12.40;;;15.10;99.90;;;;;;4957892;28;20243;-87
2023/04/18 03:11:46;;;;;;;18.50;12.90;;;15.10;99.90;;;;;;4957530;28;20958;-81
2023/04/18 03:14:11;;;;;;;17.90;12.33;;;15.10;99.90;;;;;;4957466;28;20203;-81
2023/04/18 03:16:37;;;;;;;19.00;12.47;;;15.20;99.90;;;;;;4957548;28;20334;-87
2023/04/18 03:19:02;;;;;;;15.73;12.33;;;15.10;99.90;;;;;;4958849;28;20203;-82
2023/04/18 03:21:28;;;;;;;18.27;13.57;;;15.00;99.90;;;;;;4961461;28;20200;-86
2023/04/18 03:23:54;;;;;;;16.40;12.93;;;14.90;99.90;;;;;;4978612;28;20649;-86
2023/04/18 03:26:20;;;;;;;21.73;14.10;;;14.80;99.90;;;;;;4961347;28;20183;-81
2023/04/18 03:28:45;;;;;;;19.27;13.70;;;14.70;99.90;;;;;;4961261;28;20196;-81
2023/04/18 03:31:11;;;;;;;20.87;13.77;;;14.60;99.90;;;;;;4978647;28;20436;-86
2023/04/18 03:33:38;;;;;;;19.10;14.30;;;14.60;99.90;;;;;;4961237;28;20246;-81
2023/04/18 03:36:04;;;;;;;18.37;13.23;;;14.50;99.90;;;;;;4978571;28;20165;-81
2023/04/18 03:38:30;;;;;;;18.30;12.10;;;14.50;99.90;;;;;;4978271;28;20445;-81
2023/04/18 03:40:56;;;;;;;21.53;15.00;;;14.50;99.90;;;;;;4961390;28;20489;-82
2023/04/18 03:43:21;;;;;;;17.30;13.30;;;14.50;99.90;;;;;;4978283;28;20222;-81
2023/04/18 03:45:47;;;;;;;21.23;14.60;;;14.60;99.90;;;;;;4961042;28;20700;-85
2023/04/18 03:48:13;;;;;;;21.63;14.03;;;14.70;99.90;;;;;;4978648;28;20176;-81
2023/04/18 03:50:40;;;;;;;18.77;13.33;;;14.60;99.90;;;;;;4978316;28;20441;-85
2023/04/18 03:53:05;;;;;;;20.90;15.23;;;14.70;99.90;;;;;;4961021;28;20185;-81
2023/04/18 03:55:31;;;;;;;22.97;14.50;;;14.60;99.90;;;;;;4978204;28;20566;-81
2023/04/18 03:57:58;;;;;;;17.60;13.37;;;14.60;99.90;;;;;;4960743;28;20211;-87
2023/04/18 04:00:24;;;;;;;18.40;13.87;;;14.70;99.90;;;;;;4978181;28;20525;-86
2023/04/18 04:02:50;;;;;;;21.00;14.20;;;14.70;99.90;;;;;;4978169;28;20655;-86
2023/04/18 04:05:16;;;;;;;17.70;13.50;;;14.70;99.90;;;;;;4960557;28;20806;-86
2023/04/18 04:07:42;;;;;;;21.37;14.20;;;14.80;99.90;;;;;;4978317;28;20185;-87
2023/04/18 04:10:08;;;;;;;21.90;15.90;;;14.90;99.90;;;;;;4977913;28;20422;-86
2023/04/18 04:12:34;;;;;;;21.20;14.60;;;14.90;99.90;;;;;;4960505;28;20480;-81
2023/04/18 04:15:00;;;;;;;17.90;13.60;;;15.10;99.90;;;;;;4960569;28;20434;-87
2023/04/18 04:17:26;;;;;;;18.03;14.57;;;15.20;99.90;;;;;;4977847;28;20485;-82
2023/04/18 04:19:52;;;;;;;28.33;19.93;;;15.30;99.90;;;;;;4976331;28;20426;-81
2023/04/18 04:22:17;;;;;;;22.97;15.80;;;15.30;99.90;;;;;;4958393;28;20664;-88
2023/04/18 04:24:45;;;;;;;19.30;14.10;;;15.40;99.90;;;;;;4958053;28;20196;-82
2023/04/18 04:27:12;;;;;;;18.40;14.03;;;15.40;99.90;;;;;;4958257;28;20560;-88
2023/04/18 04:29:38;;;;;;;15.00;11.77;;;15.40;99.90;;;;;;4955695;28;20931;-85
2023/04/18 04:32:05;;;;;;;17.70;13.43;;;15.40;99.90;;;;;;4953676;28;20510;-86
2023/04/18 04:34:31;;;;;;;15.55;13.05;;;15.50;99.90;;;;;;4956189;28;20928;-87
2023/04/18 04:36:57;;;;;;;17.03;13.80;;;15.50;99.90;;;;;;4958083;29;20456;-80
2023/04/18 04:39:22;;;;;;;15.85;12.80;;;15.40;99.90;;;;;;4955951;28;20556;-81
2023/04/18 04:41:48;;;;;;;15.97;12.10;;;15.40;99.90;;;;;;4955635;28;20196;-88
2023/04/18 04:44:17;;;;;;;19.23;13.47;;;15.40;99.90;;;;;;4952699;28;20217;-87
2023/04/18 04:46:43;;;;;;;27.97;17.37;;;15.40;99.90;;;;;;4936924;29;20423;-81
2023/04/18 04:49:10;;;;;;;18.23;13.17;;;15.30;99.90;;;;;;4953996;28;20904;-81
2023/04/18 04:51:36;;;;;;;15.67;11.60;;;15.30;99.90;;;;;;4955715;28;20434;-81
2023/04/18 04:54:02;;;;;;;12.80;10.50;;;15.30;99.90;;;;;;4957225;28;20452;-87
2023/04/18 04:56:28;;;;;;;15.23;11.80;;;15.30;99.90;;;;;;4975217;28;20520;-86
2023/04/18 04:58:54;;;;;;;21.13;14.50;;;15.20;99.90;;;;;;4975259;28;20530;-81
2023/04/18 05:01:21;;;;;;;14.65;11.80;;;15.20;99.90;;;;;;4959524;28;20183;-87
2023/04/18 05:03:48;;;;;;;13.90;11.30;;;15.10;99.90;;;;;;4958288;28;20482;-81
2023/04/18 05:06:19;;;;;;;16.37;12.80;;;15.20;99.90;;;;;;4959140;28;20419;-81
2023/04/18 05:08:48;;;;;;;13.60;10.50;;;15.10;99.90;;;;;;4959472;28;20958;-81
2023/04/18 05:11:14;;;;;;;13.73;10.10;;;15.00;99.90;;;;;;4959365;28;20473;-87
2023/04/18 05:13:40;;;;;;;15.10;11.00;;;15.00;99.90;;;;;;4976780;28;20535;-86
2023/04/18 05:16:06;;;;;;;17.10;11.03;;;15.00;99.90;;;;;;4976854;28;20441;-81
2023/04/18 05:18:33;;;;;;;15.53;10.93;;;15.00;99.90;;;;;;4966151;28;20212;-87
2023/04/18 05:20:58;;;;;;;14.20;9.93;;;15.00;99.90;;;;;;4978602;28;20550;-81
2023/04/18 05:23:24;;;;;;;11.93;10.23;;;15.00;99.90;;;;;;4989578;28;20478;-87
2023/04/18 05:25:50;;;;;;;11.23;8.80;;;15.00;99.90;;;;;;4958223;28;20176;-86
2023/04/18 05:28:16;;;;;;;13.80;10.57;;;14.90;99.90;;;;;;4958467;28;20437;-87
2023/04/18 05:30:41;;;;;;;12.03;9.10;;;14.80;99.90;;;;;;4957214;28;20180;-86
2023/04/18 05:33:07;;;;;;;14.40;11.27;;;14.80;99.90;;;;;;4958201;28;20633;-86
2023/04/18 05:35:33;;;;;;;12.17;9.67;;;14.70;99.90;;;;;;4976364;28;20410;-81
2023/04/18 05:37:59;;;;;;;11.90;9.60;;;14.70;99.90;;;;;;4975598;28;20180;-81
2023/04/18 05:40:26;;;;;;;12.50;8.87;;;14.60;99.90;;;;;;4974979;28;20207;-82
2023/04/18 05:42:52;;;;;;;11.13;8.50;;;14.60;99.90;;;;;;4974752;28;20307;-81
2023/04/18 05:45:17;;;;;;;13.33;8.70;;;14.60;99.90;;;;;;4955141;28;21042;-81
2023/04/18 05:47:43;;;;;;;11.93;10.10;;;14.60;99.90;;;;;;4974895;28;20181;-82
2023/04/18 05:50:09;;;;;;;12.83;10.20;;;14.50;99.90;;;;;;4980268;28;20208;-81
2023/04/18 05:52:37;;;;;;;11.47;9.77;;;14.50;99.90;;;;;;4973578;28;20184;-87
2023/04/18 05:55:04;;;;;;;14.77;10.70;;;14.50;99.90;;;;;;4973843;28;20497;-85
2023/04/18 05:57:30;;;;;;;12.17;9.43;;;14.60;99.90;;;;;;4956944;28;20436;-87
2023/04/18 05:59:56;;;;;;;9.27;8.20;;;14.60;99.90;;;;;;4987994;28;20822;-81
2023/04/18 06:02:22;;;;;;;9.43;8.43;;;14.70;99.90;;;;;;4957103;28;20422;-81
2023/04/18 06:04:48;;;;;;;15.10;11.27;;;14.60;99.90;;;;;;4974341;28;20200;-86
2023/04/18 06:07:14;;;;;;;10.10;8.47;;;14.70;99.90;;;;;;4957483;28;20536;-86
2023/04/18 06:09:39;;;;;;;9.13;8.00;;;14.70;99.90;;;;;;4974712;28;20434;-86
2023/04/18 06:12:05;;;;;;;10.07;8.10;;;14.80;99.90;;;;;;4975640;28;20275;-87
2023/04/18 06:14:31;;;;;;;12.00;8.17;;;14.70;99.90;;;;;;4960074;28;20192;-81
2023/04/18 06:16:57;;;;;;;8.80;7.33;;;14.70;99.90;;;;;;4972855;28;20466;-81
2023/04/18 06:19:23;;;;;;;10.40;7.93;;;14.70;99.90;;;;;;4971040;28;20199;-86
2023/04/18 06:21:49;;;;;;;10.47;7.40;;;14.70;99.90;;;;;;4971580;28;20430;-87
2023/04/18 06:24:15;;;;;;;9.20;7.07;;;14.70;99.90;;;;;;4971760;28;20215;-81
2023/04/18 06:26:41;;;;;;;9.20;7.50;;;14.70;99.90;;;;;;4990057;28;20431;-81
2023/04/18 06:29:06;;;;;;;9.80;6.90;;;14.70;99.90;;;;;;4957629;28;20451;-86
2023/04/18 06:31:32;;;;;;;13.70;8.20;;;14.70;99.90;;;;;;4974031;28;20195;-83
2023/04/18 06:33:58;;;;;;;9.90;7.27;;;14.70;99.90;;;;;;4972106;28;20227;-80
2023/04/18 06:36:23;;;;;;;8.67;6.80;;;14.70;99.90;;;;;;4969183;28;20183;-80
2023/04/18 06:38:49;;;;;;;8.47;6.90;;;14.70;99.90;;;;;;4973619;28;20192;-80
2023/04/18 06:41:15;;;;;;;7.27;5.97;;;14.70;99.90;;;;;;4980807;28;20203;-81
2023/04/18 06:43:40;;;;;;;9.83;6.80;;;14.70;99.90;;;;;;4962370;28;20220;-85
2023/04/18 06:46:07;;;;;;;6.73;5.50;;;14.80;99.90;;;;;;4971859;28;20218;-82
2023/04/18 06:48:33;;;;;;;7.80;5.73;;;14.80;99.90;;;;;;4952716;28;20208;-82
2023/04/18 06:50:58;;;;;;;7.23;5.80;;;14.70;99.90;;;;;;4962622;28;20945;-81
2023/04/18 06:53:24;;;;;;;7.47;6.00;;;14.70;99.90;;;;;;4991110;28;20289;-82
2023/04/18 06:55:50;;;;;;;8.13;6.10;;;14.70;99.90;;;;;;4974468;28;20434;-82
2023/04/18 06:58:16;;;;;;;8.67;7.13;;;14.70;99.90;;;;;;4970132;28;20625;-80
2023/04/18 07:00:42;;;;;;;10.40;7.13;;;14.70;99.90;;;;;;4968665;28;20172;-80
2023/04/18 07:03:11;;;;;;;8.97;7.27;;;14.70;99.90;;;;;;4971822;28;20363;-82
2023/04/18 07:05:40;;;;;;;9.47;6.93;;;14.70;99.90;;;;;;4970728;28;20453;-80
2023/04/18 07:08:06;;;;;;;7.47;6.03;;;14.80;99.90;;;;;;4971790;28;20438;-81
2023/04/18 07:10:32;;;;;;;7.37;6.40;;;14.80;99.90;;;;;;4953591;28;20453;-81
2023/04/18 07:12:58;;;;;;;7.73;6.50;;;14.70;99.90;;;;;;4969372;28;20544;-83
2023/04/18 07:15:25;;;;;;;7.83;6.50;;;14.70;99.90;;;;;;4971184;28;20634;-83
2023/04/18 07:17:50;;;;;;;6.70;6.00;;;14.80;99.90;;;;;;4973492;28;20434;-81
2023/04/18 07:20:16;;;;;;;7.90;6.10;;;14.80;99.90;;;;;;4971427;28;20457;-81
2023/04/18 07:22:42;;;;;;;6.60;5.70;;;14.80;99.90;;;;;;4969159;28;20203;-81
2023/04/18 07:25:08;;;;;;;7.10;5.83;;;14.80;99.90;;;;;;4967701;28;20585;-82
2023/04/18 07:27:35;;;;;;;6.30;5.63;;;14.80;99.90;;;;;;4966208;28;20674;-82
2023/04/18 07:30:05;;;;;;;8.23;6.03;;;14.90;99.90;;;;;;4968389;28;20533;-81
2023/04/18 07:32:30;;;;;;;6.60;5.07;;;15.00;99.90;;;;;;4950274;28;20547;-81
2023/04/18 07:34:56;;;;;;;5.97;5.37;;;15.00;99.90;;;;;;4949340;28;20478;-84
2023/04/18 07:37:22;;;;;;;6.00;5.40;;;15.10;99.90;;;;;;4963611;28;20522;-84
2023/04/18 07:39:48;;;;;;;6.90;5.70;;;15.10;99.90;;;;;;4964099;28;20200;-81
2023/04/18 07:42:13;;;;;;;7.00;5.50;;;15.20;99.90;;;;;;4964001;28;20537;-84
2023/04/18 07:44:39;;;;;;;6.70;5.40;;;15.20;99.90;;;;;;4940897;28;20220;-80
2023/04/18 07:47:09;;;;;;;7.50;5.13;;;15.10;99.90;;;;;;4962869;28;20681;-83
2023/04/18 07:49:36;;;;;;;7.13;5.10;;;15.20;99.90;;;;;;4960164;28;20634;-81
2023/04/18 07:52:02;;;;;;;34.50;20.90;;;15.20;99.90;;;;;;4947340;28;20952;-81
2023/04/18 07:54:27;;;;;;;6.80;6.10;;;15.30;99.90;;;;;;4961890;28;20461;-81
2023/04/18 07:56:53;;;;;;;5.10;4.37;;;15.30;99.90;;;;;;4972150;28;20950;-81
2023/04/18 07:59:19;;;;;;;5.67;4.87;;;15.30;99.90;;;;;;4950541;28;20840;-82
2023/04/18 08:01:45;;;;;;;4.97;4.57;;;15.30;99.90;;;;;;4950300;28;20228;-81
2023/04/18 08:04:11;;;;;;;5.87;4.40;;;15.20;99.90;;;;;;4967125;28;20996;-81
2023/04/18 08:06:37;;;;;;;4.63;3.80;;;15.20;99.90;;;;;;4970089;28;20200;-82
2023/04/18 08:09:04;;;;;;;7.00;4.47;;;15.20;99.90;;;;;;4949295;28;20462;-81
2023/04/18 08:11:31;;;;;;;5.23;4.50;;;15.20;99.90;;;;;;4970313;28;20681;-82
2023/04/18 08:13:57;;;;;;;4.90;4.20;;;15.10;99.90;;;;;;4948713;28;20450;-82
2023/04/18 08:16:22;;;;;;;4.90;4.00;;;15.10;99.90;;;;;;4968829;28;20493;-83
2023/04/18 08:18:48;;;;;;;3.50;3.20;;;15.10;99.90;;;;;;4952001;28;20286;-82
2023/04/18 08:21:14;;;;;;;4.30;3.87;;;15.00;99.90;;;;;;4971013;28;20184;-83
2023/04/18 08:23:40;;;;;;;5.00;3.63;;;14.90;99.90;;;;;;4955665;28;20263;-83
2023/04/18 08:26:06;;;;;;;5.00;3.43;;;14.80;99.90;;;;;;4972239;28;20176;-83
2023/04/18 08:28:32;;;;;;;5.83;3.77;;;14.80;99.90;;;;;;4972937;28;20493;-84
2023/04/18 08:30:57;;;;;;;4.03;3.63;;;14.80;99.90;;;;;;4973076;28;20675;-83
2023/04/18 08:33:23;;;;;;;5.17;4.60;;;14.80;99.90;;;;;;4979286;28;20228;-82
2023/04/18 08:35:50;;;;;;;5.97;4.23;;;14.80;99.90;;;;;;4970606;28;20653;-82
2023/04/18 08:38:17;;;;;;;4.10;3.60;;;14.90;99.90;;;;;;4957027;28;20191;-83
2023/04/18 08:40:44;;;;;;;5.00;4.40;;;14.90;99.90;;;;;;4965500;28;20478;-82
2023/04/18 08:43:13;;;;;;;4.33;3.93;;;15.00;99.90;;;;;;4974827;28;20559;-83
2023/04/18 08:45:39;;;;;;;5.30;3.60;;;15.10;99.90;;;;;;4968634;28;20435;-82
2023/04/18 08:48:06;;;;;;;3.83;3.43;;;15.10;99.90;;;;;;4970056;28;20447;-83
2023/04/18 08:50:32;;;;;;;4.40;3.80;;;15.10;99.90;;;;;;4971098;28;20687;-82
2023/04/18 08:53:00;;;;;;;5.80;4.10;;;15.10;99.90;;;;;;4956335;28;20442;-83
2023/04/18 08:55:26;;;;;;;4.20;3.80;;;15.10;99.90;;;;;;4957591;28;20556;-83
2023/04/18 08:57:54;;;;;;;4.53;3.60;;;15.20;99.90;;;;;;4975533;28;20529;-83
2023/04/18 09:00:21;;;;;;;6.80;5.43;;;15.30;99.90;;;;;;4975688;28;20220;-84
2023/04/18 09:02:48;;;;;;;5.37;4.50;;;15.30;99.90;;;;;;4957558;28;20501;-83
2023/04/18 09:05:13;;;;;;;4.10;3.60;;;15.30;99.90;;;;;;4957165;28;20994;-83
2023/04/18 09:07:39;;;;;;;4.33;3.93;;;15.40;99.90;;;;;;4963444;28;20447;-83
2023/04/18 09:10:06;;;;;;;3.63;3.10;;;15.50;99.90;;;;;;4950888;28;20691;-82
2023/04/18 09:12:41;;;;;;;3.87;3.37;;;15.50;99.90;;;;;;4939396;28;20482;-83
2023/04/18 09:15:15;;;;;;;2.90;2.60;;;15.50;99.90;;;;;;4965649;28;20457;-82
2023/04/18 09:17:44;;;;;;;3.77;3.47;;;15.50;99.90;;;;;;4949515;28;20884;-81
2023/04/18 09:20:11;;;;;;;4.23;3.60;;;15.50;99.90;;;;;;4951599;28;20442;-82
2023/04/18 09:22:49;;;;;;;4.63;3.13;;;15.50;99.90;;;;;;4966435;28;20477;-82
2023/04/18 09:25:33;;;;;;;3.93;3.50;;;15.60;99.90;;;;;;4968543;28;20730;-80
2023/04/18 09:28:00;;;;;;;3.80;3.40;;;15.60;99.90;;;;;;4951137;28;20540;-82
2023/04/18 09:30:32;;;;;;;4.00;3.57;;;15.60;99.90;;;;;;4948645;28;20493;-82
2023/04/18 09:33:00;;;;;;;7.27;3.67;;;15.60;99.90;;;;;;4976756;28;20514;-81
2023/04/18 09:35:26;;;;;;;4.83;4.03;;;15.60;99.90;;;;;;4968090;28;20496;-82
2023/04/18 09:37:52;;;;;;;4.10;3.53;;;15.60;99.90;;;;;;4968069;28;20448;-82
2023/04/18 09:40:18;;;;;;;4.40;4.00;;;15.60;99.90;;;;;;4947117;28;20466;-81
2023/04/18 09:42:45;;;;;;;4.90;4.30;;;15.60;99.90;;;;;;4950662;28;20476;-81
2023/04/18 09:45:15;;;;;;;3.83;3.50;;;15.60;99.90;;;;;;4949351;28;20454;-82
2023/04/18 09:47:40;;;;;;;5.37;4.00;;;15.60;99.90;;;;;;4963141;28;20735;-82
2023/04/18 09:50:09;;;;;;;10.20;7.93;;;15.60;99.90;;;;;;4960832;28;20455;-80
2023/04/18 09:52:40;;;;;;;4.87;4.30;;;15.60;99.90;;;;;;4947274;28;20554;-80
2023/04/18 09:55:09;;;;;;;3.30;3.00;;;15.70;99.90;;;;;;4945853;28;20462;-80
2023/04/18 09:57:39;;;;;;;4.63;4.13;;;15.70;99.90;;;;;;4967305;28;20446;-82
2023/04/18 10:00:25;;;;;;;3.40;3.10;;;15.80;99.90;;;;;;4967041;28;20809;-81
2023/04/18 10:03:12;;;;;;;4.90;4.10;;;15.90;99.90;;;;;;4957505;28;20919;-81
2023/04/18 10:05:39;;;;;;;4.10;3.70;;;15.90;99.90;;;;;;4962035;28;20434;-81
2023/04/18 10:08:05;;;;;;;7.63;4.60;;;15.90;99.90;;;;;;4950973;28;20446;-81
2023/04/18 10:10:31;;;;;;;4.30;3.90;;;15.90;99.90;;;;;;4965425;28;20926;-80
2023/04/18 10:12:59;;;;;;;4.83;3.63;;;15.90;99.90;;;;;;4966905;28;20493;-81
2023/04/18 10:15:27;;;;;;;6.10;3.93;;;16.00;99.90;;;;;;4963537;28;20458;-81
2023/04/18 10:17:58;;;;;;;4.03;3.63;;;16.10;99.90;;;;;;4963605;28;20484;-81
2023/04/18 10:20:29;;;;;;;4.70;4.13;;;16.10;99.90;;;;;;4952392;28;20467;-82
2023/04/18 10:22:57;;;;;;;4.53;4.00;;;16.10;99.90;;;;;;4962875;28;20460;-81
2023/04/18 10:25:37;;;;;;;3.70;3.40;;;16.10;99.90;;;;;;4967229;28;20517;-81
2023/04/18 10:28:07;;;;;;;5.00;4.50;;;16.10;99.90;;;;;;4966485;28;20500;-82
2023/04/18 10:31:02;;;;;;;3.70;3.23;;;16.10;99.90;;;;;;4951502;28;20442;-82
2023/04/18 10:33:31;;;;;;;4.20;3.80;;;16.10;99.90;;;;;;4964292;28;20824;-80
2023/04/18 10:36:14;;;;;;;7.30;3.77;;;16.10;99.90;;;;;;4975201;28;20462;-82
2023/04/18 10:38:46;;;;;;;4.73;3.57;;;16.10;99.90;;;;;;4955840;28;20504;-82
2023/04/18 10:41:22;;;;;;;4.23;3.90;;;16.00;99.90;;;;;;4978552;28;20481;-81
2023/04/18 10:44:06;;;;;;;4.83;3.80;;;16.00;99.90;;;;;;4969697;28;20488;-82
2023/04/18 10:46:37;;;;;;;4.67;4.20;;;16.00;99.90;;;;;;4970843;28;20483;-83
2023/04/18 10:49:23;;;;;;;4.30;3.90;;;16.10;99.90;;;;;;4976932;28;20457;-82
2023/04/18 10:51:53;;;;;;;4.43;4.03;;;16.00;99.90;;;;;;4966549;28;20546;-82
2023/04/18 10:54:34;;;;;;;4.80;4.23;;;16.00;99.90;;;;;;4967453;28;20505;-81
2023/04/18 10:57:02;;;;;;;3.73;3.43;;;16.00;99.90;;;;;;4950301;28;20449;-81
2023/04/18 10:59:32;;;;;;;4.30;3.73;;;16.00;99.90;;;;;;4969200;28;20475;-82
2023/04/18 11:02:22;;;;;;;3.47;3.17;;;16.10;99.90;;;;;;4954132;28;20449;-82
2023/04/18 11:04:53;;;;;;;4.37;3.80;;;16.10;99.90;;;;;;4967062;28;21116;-81
2023/04/18 11:07:36;;;;;;;4.03;3.60;;;16.20;99.90;;;;;;4946600;28;20855;-82
2023/04/18 11:10:03;;;;;;;3.67;3.27;;;16.20;99.90;;;;;;4948943;28;20476;-81
2023/04/18 11:12:31;;;;;;;4.00;3.70;;;16.20;99.90;;;;;;4942362;28;20431;-82
2023/04/18 11:14:58;;;;;;;3.23;2.93;;;16.30;99.90;;;;;;4962107;28;20550;-82
2023/04/18 11:17:26;;;;;;;4.77;4.37;;;16.30;99.90;;;;;;4963497;28;20516;-82
2023/04/18 11:20:12;;;;;;;3.50;3.20;;;16.30;99.90;;;;;;4964041;28;20456;-82
2023/04/18 11:22:53;;;;;;;3.70;3.40;;;16.30;99.90;;;;;;4946031;28;20846;-81
2023/04/18 11:25:24;;;;;;;3.70;3.40;;;16.30;99.90;;;;;;4967738;28;20466;-82
2023/04/18 11:27:50;;;;;;;3.80;2.97;;;16.30;99.90;;;;;;4966664;28;20457;-82
2023/04/18 11:30:16;;;;;;;6.17;3.63;;;16.30;99.90;;;;;;4968299;28;20450;-82
2023/04/18 11:32:42;;;;;;;6.20;5.07;;;16.30;99.90;;;;;;4967356;28;20477;-81
2023/04/18 11:35:09;;;;;;;3.70;3.40;;;16.40;99.90;;;;;;4965873;28;20832;-82
2023/04/18 11:37:37;;;;;;;3.50;3.17;;;16.40;99.90;;;;;;4967493;28;20438;-82
2023/04/18 11:40:03;;;;;;;4.57;3.43;;;16.50;99.90;;;;;;4969937;28;20446;-80
2023/04/18 11:42:32;;;;;;;3.90;3.50;;;16.50;99.90;;;;;;4965790;28;20450;-81
2023/04/18 11:44:58;;;;;;;3.73;3.43;;;16.50;99.90;;;;;;4972622;28;20441;-81
2023/04/18 11:47:25;;;;;;;3.60;3.30;;;16.50;99.90;;;;;;4973139;28;20433;-82
2023/04/18 11:50:02;;;;;;;3.40;3.10;;;16.50;99.90;;;;;;4973158;28;20207;-81
2023/04/18 11:52:30;;;;;;;4.13;3.77;;;16.50;99.90;;;;;;4955609;28;20434;-81
2023/04/18 11:55:11;;;;;;;2.70;2.50;;;16.60;99.90;;;;;;4971570;28;21045;-81
2023/04/18 11:57:38;;;;;;;4.10;3.70;;;16.60;99.90;;;;;;4973807;28;20484;-82
2023/04/18 12:00:06;;;;;;;4.83;3.30;;;16.60;99.90;;;;;;4970494;28;20542;-82
2023/04/18 12:02:39;;;;;;;2.90;2.60;;;16.70;99.90;;;;;;4956859;28;20434;-82
2023/04/18 12:05:05;;;;;;;3.67;3.37;;;16.70;99.90;;;;;;4972309;28;20785;-82
2023/04/18 12:07:34;;;;;;;3.70;3.30;;;16.70;99.90;;;;;;4971271;28;20447;-81
2023/04/18 12:10:01;;;;;;;3.13;2.87;;;16.80;99.90;;;;;;4968849;28;20501;-82
2023/04/18 12:12:27;;;;;;;4.40;3.10;;;16.80;99.90;;;;;;4954154;28;20426;-82
2023/04/18 12:15:01;;;;;;;3.47;3.17;;;16.90;99.90;;;;;;4965491;28;20469;-81
2023/04/18 12:17:27;;;;;;;4.43;3.43;;;17.00;99.90;;;;;;4966359;28;20663;-82
2023/04/18 12:19:54;;;;;;;4.60;3.57;;;17.00;99.90;;;;;;4951423;28;20994;-81
2023/04/18 12:22:39;;;;;;;3.50;2.83;;;17.00;99.90;;;;;;4953684;28;20430;-82
2023/04/18 12:25:23;;;;;;;2.60;2.40;;;17.00;99.90;;;;;;4967828;28;20474;-81
2023/04/18 12:28:11;;;;;;;2.90;2.70;;;17.00;99.90;;;;;;4972141;28;20978;-82
2023/04/18 12:30:37;;;;;;;4.93;3.03;;;17.00;99.90;;;;;;4970867;28;20712;-81
2023/04/18 12:33:03;;;;;;;3.20;2.90;;;17.00;99.90;;;;;;4971246;28;20565;-82
2023/04/18 12:35:30;;;;;;;3.37;3.07;;;17.10;99.90;;;;;;4971339;28;20295;-82
2023/04/18 12:37:58;;;;;;;3.80;3.50;;;17.20;99.90;;;;;;4973655;28;20923;-82
2023/04/18 12:40:25;;;;;;;6.60;5.90;;;17.20;99.90;;;;;;4956991;28;20983;-82